METAR & TAF Report
Available data for CYAM from the past 6 hours
SAULT STE MARIE, ON
Metar
CYAM 182300Z 30008KT 15SM FEW050 FEW260 22/09 A3005 RMK CU1CI1 CU TR SLP180 DENSITY ALT 1500FT

23:00 UTC

Wind: 300° 8kt

Visibility: 15 SM

Sky: FEW 5000 ft

Temp: 22 deg C / 71.6 deg F

Dewpoint: 9 deg C / 48.2 deg F

Pressure: 30.05 inHg

TAF
TAF CYAM 181938Z 1820/1908 31008KT P6SM FEW050 BECMG 1823/1901 VRB03KT RMK NXT FCST BY 190200Z
NOTAM

Click here for NOTAMs.